Meteo Giornale » Osservazioni meteo Tailandia » Hat Yai
ore: 22:00 - Osservazioni Meteo Hat Yai
Lat. 6° 55' N Lon. 100° 26' E Alt. 27 metri s.l.m.
28 °C
Poco Nuvoloso
Temp. 24 Ore
24 °C
34 °C
Nord
3.7 Km/h
Dew point 25 °C
Umidità 83 %
Visibilità 10 Km
Il sole sorge alle ore 06:10
Il sole tramonta alle ore 18:25
| Data e Ora | Cielo e Fenomeni | T °C | DP °C | Um. % | Pres. hPa | Vis. km | Vento km/h | |
|---|---|---|---|---|---|---|---|---|
| Oggi h: 22:00 | Poco Nuvoloso | 28 | 25 | 83 | 1012 | 10 | N 3.7 | |
| Oggi h: 21:30 | Poco Nuvoloso | 28 | 25 | 83 | 1012 | 10 | N 3.7 | |
| Oggi h: 21:00 | Poco Nuvoloso | 28 | 24 | 78 | 1012 | 10 | N 5.5 | |
| Oggi h: 20:30 | Poco Nuvoloso | 29 | 24 | 74 | 1011 | 10 | N 5.5 | |
| Oggi h: 20:00 | Poco Nuvoloso | 29 | 24 | 74 | 1011 | 10 | N 5.5 | |
| Oggi h: 19:30 | Poco Nuvoloso | 30 | 24 | 70 | 1010 | 10 | O/SO 9.3 | |
| Oggi h: 19:00 | Poco Nuvoloso | 31 | 24 | 66 | 1010 | 10 | O/SO 13 | |
| Oggi h: 18:30 | Poco Nuvoloso | 31 | 24 | 66 | 1010 | 10 | SO 13 | |
| Oggi h: 18:00 | Nuvoloso | 32 | 24 | 62 | 1009 | 10 | SO 14.8 | |
| Oggi h: 17:30 | Nuvoloso | 33 | 24 | 59 | 1009 | 10 | SO 16.7 | |
| Oggi h: 17:00 | Nuvoloso | 33 | 23 | 55 | 1009 | 10 | O/SO 18.5 | |
| Oggi h: 16:30 | Nuvoloso | 33 | 24 | 59 | 1009 | 10 | SO 14.8 | |
| Oggi h: 16:00 | Nuvoloso | 34 | 23 | 52 | 1009 | 10 | O/SO 16.7 | |
| Oggi h: 15:30 | Nuvoloso | 34 | 23 | 52 | 1009 | 10 | O/SO 20.3 | |
| Oggi h: 15:00 | Nuvoloso | 34 | 24 | 56 | 1009 | 10 | O/SO 14.8 | |
| Oggi h: 14:30 | Nuvoloso | 33 | 23 | 55 | 1010 | 10 | O/SO 18.5 | |
| Oggi h: 14:00 | Nuvoloso | 33 | 23 | 55 | 1010 | 10 | SO 20.3 | |
| Oggi h: 13:30 | Nuvoloso | 34 | 23 | 52 | 1010 | 10 | SO 20.3 | |
| Oggi h: 13:00 | Nuvoloso | 34 | 23 | 52 | 1010 | 10 | SO 22.2 | |
| Oggi h: 12:30 | Nuvoloso | 33 | 23 | 55 | 1011 | 10 | SO 14.8 | |
| Oggi h: 12:00 | Nuvoloso | 33 | 22 | 52 | 1011 | 10 | SO 13 | |
| Oggi h: 11:30 | Nuvoloso | 33 | 24 | 59 | 1011 | 10 | N 7.4 | |
| Oggi h: 11:00 | Nuvoloso | 32 | 25 | 66 | 1012 | 10 | N 5.5 | |
| Oggi h: 10:30 | Nuvoloso | 31 | 24 | 66 | 1012 | 10 | N 5.5 | |
| Oggi h: 10:00 | Nuvoloso | 31 | 24 | 66 | 1012 | 10 | SO 7.4 | |
| Oggi h: 09:30 | Nuvoloso | 30 | 24 | 70 | 1012 | 10 | N 5.5 | |
| Oggi h: 09:00 | Nuvoloso | 29 | 25 | 79 | 1012 | 10 | N 3.7 | |
| Oggi h: 08:30 | Nuvoloso | 27 | 25 | 88 | 1012 | 8 | N 3.7 | |
| Oggi h: 08:00 | Nuvoloso | 26 | 24 | 88 | 1012 | 7 | N 3.7 | |
| Oggi h: 07:30 | Nuvoloso | 25 | 24 | 94 | 1011 | 10 | N 1.8 | |
| Oggi h: 07:00 | Nuvoloso | 25 | 24 | 94 | 1011 | 6 | N 1.8 | |
| Oggi h: 06:30 | Foschia | 24 | 24 | 100 | 1011 | 5 | N 0 | |
| Oggi h: 06:00 | Foschia | 24 | 24 | 100 | 1010 | 5 | N 1.8 | |
| Oggi h: 05:30 | Poco Nuvoloso | 25 | 24 | 94 | 1011 | 6 | N 1.8 | |
| Oggi h: 05:00 | Poco Nuvoloso | 25 | 24 | 94 | 1010 | 6 | N 3.7 | |
| Oggi h: 04:30 | Poco Nuvoloso | 25 | 24 | 94 | 1010 | 7 | N 0 | |
| Oggi h: 04:00 | Poco Nuvoloso | 25 | 24 | 94 | 1010 | 6 | N 1.8 | |
| Oggi h: 03:30 | Poco Nuvoloso | 25 | 24 | 94 | 1010 | 6 | N 0 | |
| Oggi h: 03:00 | Poco Nuvoloso | 25 | 24 | 94 | 1011 | 8 | N 3.7 | |
| Oggi h: 02:30 | Poco Nuvoloso | 25 | 24 | 94 | 1011 | 10 | N 1.8 | |
| Oggi h: 02:00 | Poco Nuvoloso | 26 | 24 | 88 | 1011 | 10 | N 3.7 | |
| Oggi h: 01:30 | Poco Nuvoloso | 26 | 25 | 94 | 1011 | 10 | N 0 | |
| Oggi h: 01:00 | Poco Nuvoloso | 26 | 24 | 88 | 1011 | 10 | N 0 | |
| Oggi h: 00:30 | Poco Nuvoloso | 26 | 24 | 88 | 1011 | 10 | N 0 | |
| Oggi h: 00:00 | Poco Nuvoloso | 26 | 25 | 94 | 1012 | 10 | N 0 | |
| Ieri h: 23:30 | Poco Nuvoloso | 27 | 24 | 83 | 1012 | 10 | N 3.7 | |
| Ieri h: 23:00 | Poco Nuvoloso | 27 | 24 | 83 | 1012 | 10 | N 3.7 | |



